Tiempo atmosférico en la estación meteorológica de Arenys De Mar, Barcelona (50 m.)

Fecha
DESCASC
Temp. máxima en grados centígrados (hora)
DESCASC
Temp. mínima en grados centígrados (hora)
DESCASC
Temp. media en grados centígrados
DESCASC
Racha de viento máxima en m/sg (hora)
DESCASC
Velocidad máxima media en intervalos de 10 minutos(hora)
DESCASC
Precipitaciones diarias en mm
DESCASC
Precipitaciones de 00:00 a 06:00 en mm
DESCASC
Precipitaciones de 06:00 a 12:00 en mm
DESCASC
Precipitaciones de 12:00 a 18:00 en mm
DESCASC
Precipitaciones de 18:00 a 24:00 en mm
DESCASC
10-12-2017 15.6 (13:50) 7.9 (00:20) 11.8 9.72 (11:00) 3.61 (13:40) 0 0 0 0 0
09-12-2017 10.5 (15:10) 6.7 (09:10) 8.6 5.28 (20:10) 2.22 (05:20) 0.7 0.2 0.1 0 0.4
08-12-2017 13.5 (15:10) 4.9 (01:40) 9.2 7.5 (03:10) 3.61 (05:50) 0.3 0 0 0 0.3
07-12-2017 16.7 (13:10) 5.5 (00:00) 11.1 7.78 (06:20) 3.33 (11:30) 0 0 0 0 0
06-12-2017 14.7 (13:10) 3.2 (00:00) 8.9 6.39 (14:00) 3.33 (14:00) 0 0 0 0 0
05-12-2017 14.5 (11:10) 4 (00:00) 9.3 4.72 (13:40) 2.78 (03:00) 0 0 0 0 0
04-12-2017 14.7 (11:30) 2.5 (00:00) 8.6 5 (04:40) 2.5 (02:10) 0 0 0 0 0
03-12-2017 13.8 (11:30) 2 (00:00) 7.9 5.28 (13:30) 3.06 (21:20) 0 0 0 0 0
02-12-2017 9.6 (13:00) -0.9 (-00:0) 4.4 7.5 (10:30) 3.06 (13:10) 0 0 0 0 0
01-12-2017 11.6 (11:40) -0.3 (00:00) 5.7 7.22 (15:20) 3.61 (15:20) 7.2 0 0 7.2 0
30-11-2017 12.4 (11:40) 3.4 (00:00) 7.9 5.28 (22:40) 2.78 (20:10) 0 0 0 0 0
29-11-2017 11.6 (10:40) 5.8 (00:00) 8.7 5.83 (14:20) 2.78 (14:20) 0 0 0 0 0
28-11-2017 18.1 (11:10) 6.8 (00:00) 12.5 6.67 (06:30) 3.06 (23:30) 0 0 0 0 0
27-11-2017 15 (11:50) 4.8 (00:00) 9.9 6.67 (14:50) 3.06 (14:20) 0 0 0 0 0
26-11-2017 15.1 (12:40) 6.8 (00:00) 11 6.67 (15:10) 3.33 (15:00) 0 0 0 0 0
25-11-2017 17.8 (14:20) 9.7 (00:00) 13.7 4.72 (12:00) 2.22 (23:00) 5.1 0 0 0 5.1
24-11-2017 19.8 (13:40) 9.3 (00:00) 14.5 5 (14:20) 2.5 (14:20) 0 0 0 0 0
23-11-2017 20.1 (12:50) 10.2 (00:00) 15.2 7.22 (16:10) 3.33 (16:00) 0 0 0 0 0
22-11-2017 18.7 (12:30) 6.6 (00:00) 12.7 7.78 (13:30) 3.33 (13:00) 0 0 0 0 0
21-11-2017 19.4 (11:00) 6.9 (00:00) 13.1 3.61 (21:40) 1.67 (21:40) 0 0 0 0 0
20-11-2017 18.6 (11:00) 7.8 (00:00) 13.2 4.44 (04:50) 2.22 (04:40) 0 0 0 0 0
19-11-2017 18.2 (13:00) 7.4 (00:00) 12.8 4.17 (22:20) 2.22 (22:10) 0 0 0 0 0
18-11-2017 19.5 (12:50) 9.8 (00:00) 14.7 3.89 (00:20) 2.22 (08:30) 0 0 0 0 0
17-11-2017 20.3 (13:00) 6.5 (00:00) 13.4 6.39 (22:30) 2.5 (02:20) 0 0 0 0 0
16-11-2017 16.7 (13:00) 6.4 (00:00) 11.6 4.72 (14:30) 2.22 (02:10) 0 0 0 0 0
15-11-2017 16.9 (11:10) 5 (00:00) 10.9 5 (04:00) 2.78 (03:50) 0 0 0 0 0

Gráficas

Temp. máximas Temp. mínimas Temp. medias Precipitaciones Rachas de viento máximas Velocidades máximas media en intervalos de 10 minutos

Datos horarios

Fecha y hora oficial Temperatura (ºC) Velocidad del viento (km/h) Dirección del viento Racha (km/h) Dirección de racha Precipitación (mm) Presión (hPa) Tendencia (hPa) Humedad (%)
2017-12-14 23:00:00 10.5 5 Sur 16 Oeste 0 -- -- 68
2017-12-14 22:00:00 12.5 6 Oeste 19 Sudoeste 0 -- -- 61
2017-12-14 21:00:00 11.6 2 Oeste 14 Oeste 0 -- -- 63
2017-12-14 20:00:00 12.4 5 Oeste 21 Oeste 0 -- -- 60
2017-12-14 19:00:00 11.9 4 Oeste 11 Noroeste 0 -- -- 64
2017-12-14 18:00:00 11.8 4 Oeste 15 Oeste 0 -- -- 62
2017-12-14 17:00:00 11.7 4 Sudoeste 12 Sur 0 -- -- 64
2017-12-14 16:00:00 13 6 Sudoeste 17 Sur 0 -- -- 59
2017-12-14 15:00:00 12.9 7 Sudoeste 24 Oeste 0 -- -- 59
2017-12-14 14:00:00 12.6 12 Sudoeste 22 Sudoeste 0 -- -- 57
2017-12-14 13:00:00 12.4 10 Sudoeste 29 Oeste 0 -- -- 56
2017-12-14 12:00:00 12.5 8 Sudoeste 22 Sur 0 -- -- 55
2017-12-14 11:00:00 12.5 9 Sur 18 Sur 0 -- -- 57
2017-12-14 10:00:00 11.4 7 Sudoeste 15 Sudoeste 0 -- -- 59
2017-12-14 09:00:00 9.5 0 Calma 8 Noroeste 0 -- -- 65
2017-12-14 08:00:00 10.4 3 Sur 23 Sur 0 -- -- 59
2017-12-14 07:00:00 10.1 11 Sudoeste 28 Sudoeste 0 -- -- 55
2017-12-14 06:00:00 10.6 8 Sur 23 Sur 0 -- -- 55
2017-12-14 05:00:00 10.7 8 Sudoeste 20 Sudoeste 0 -- -- 52
2017-12-14 04:00:00 10.4 6 Oeste 40 Oeste 0 -- -- 50
2017-12-14 03:00:00 10.8 12 Oeste 37 Oeste 0 -- -- 49
2017-12-14 02:00:00 10.1 8 Sudoeste 29 Oeste 0 -- -- 50
2017-12-14 01:00:00 9 5 Sur 16 Sudoeste 0 -- -- 53
2017-12-14 00:00:00 8.7 8 Sur 17 Sur 0 -- -- 52
2017-12-13 23:00:00 8.3 4 Sudoeste 16 Sur 0 -- -- 51
2017-12-13 22:00:00 8.4 8 Sudoeste 25 Sur 0 -- -- 49
2017-12-13 21:00:00 8.4 8 Sur 22 Sudoeste 0 -- -- 49
2017-12-13 20:00:00 8.6 9 Sudoeste 23 Sudeste 0 -- -- 48
2017-12-13 19:00:00 8.7 8 Sudoeste 17 Sudoeste 0 -- -- 48
2017-12-13 18:00:00 9.1 5 Sudoeste 27 Sudoeste 0 -- -- 47
2017-12-13 17:00:00 9.6 7 Sudoeste 21 Oeste 0 -- -- 46
2017-12-13 16:00:00 10 8 Sudoeste 20 Sudoeste 0 -- -- 46
2017-12-13 15:00:00 10.7 3 Oeste 23 Noroeste 0 -- -- 44
2017-12-13 14:00:00 10.9 5 Oeste 30 Sudoeste 0 -- -- 43
2017-12-13 13:00:00 9.7 8 Oeste 31 Oeste 0 -- -- 45
2017-12-13 12:00:00 7.9 8 Oeste 32 Oeste 0 -- -- 48
2017-12-13 11:00:00 8.9 10 Oeste 32 Oeste 0 -- -- 41
2017-12-13 10:00:00 7.4 4 Sudoeste 24 Oeste 0 -- -- 50
2017-12-13 09:00:00 7.4 8 Norte 23 Noroeste 0 -- -- 46
2017-12-13 08:00:00 7.3 8 Oeste 24 Noroeste 0 -- -- 47
2017-12-13 07:00:00 6.7 6 Oeste 21 Sudoeste 0 -- -- 51
2017-12-13 06:00:00 6.3 9 Sudoeste 21 Noroeste 0 -- -- 53
2017-12-13 05:00:00 6.2 9 Sudoeste 18 Sudoeste 0 -- -- 62
2017-12-13 04:00:00 6.6 10 Sudoeste 21 Sudoeste 0 -- -- 66
2017-12-13 03:00:00 6.7 8 Sudoeste 13 Sur 0 -- -- 69
2017-12-13 02:00:00 6.8 9 Sudoeste 13 Sudoeste 0 -- -- 77
2017-12-13 01:00:00 5.4 7 Norte 13 Norte 0 -- -- 85
2017-12-13 00:00:00 5.2 5 Oeste 12 Sudoeste 0 -- -- 89
2017-12-12 23:00:00 4.9 4 Norte 10 Nordeste 0 -- -- 91
2017-12-12 22:00:00 5.3 3 Noroeste 8 Norte 0 -- -- 89
2017-12-12 21:00:00 6 4 Norte 14 Norte 0 -- -- 85
2017-12-12 20:00:00 5.8 7 Norte 13 Nordeste 0 -- -- 88
2017-12-12 19:00:00 6.5 6 Norte 14 Norte 0 -- -- 86
2017-12-12 18:00:00 6.7 8 Norte 13 Norte 0 -- -- 87
2017-12-12 17:00:00 7.5 5 Norte 9 Norte 0 -- -- 84
2017-12-12 16:00:00 8.9 4 Norte 18 Norte 0 -- -- 81
2017-12-12 15:00:00 9.2 6 Norte 21 Norte 1.4 -- -- 82
2017-12-12 14:00:00 8.7 9 Oeste 23 Sudoeste 1.8 -- -- 70
2017-12-12 13:00:00 11.3 0 Calma 13 Este 0 -- -- 56
2017-12-12 12:00:00 12.2 3 Nordeste 14 Nordeste 0 -- -- 58
2017-12-12 11:00:00 10.7 3 Norte 12 Norte 0 -- -- 67
2017-12-12 10:00:00 8.6 7 Norte 12 Norte 0 -- -- 67
2017-12-12 09:00:00 7.4 6 Norte 14 Norte 0 -- -- 70
2017-12-12 08:00:00 5.6 7 Norte 15 Norte 0 -- -- 72
2017-12-12 07:00:00 5.1 6 Norte 13 Norte 0 -- -- 74
2017-12-12 06:00:00 4.6 5 Norte 10 Oeste 0 -- -- 78
2017-12-12 05:00:00 6.4 3 Oeste 19 Oeste 0 -- -- 69
2017-12-12 04:00:00 7.9 9 Oeste 25 Noroeste 0 -- -- 61
2017-12-12 03:00:00 7.1 10 Sudoeste 19 Noroeste 0 -- -- 64
2017-12-12 02:00:00 7.1 4 Oeste 11 Oeste 0 -- -- 66
2017-12-12 01:00:00 6.5 0 Calma 9 Oeste 0 -- -- 70
2017-12-12 00:00:00 5.5 2 Oeste 13 Sudoeste 0 -- -- 79
2017-12-11 23:00:00 5.8 4 Norte 7 Norte 0 -- -- 80
2017-12-11 22:00:00 7.6 5 Sudoeste 12 Oeste 0 -- -- 69
2017-12-11 21:00:00 7.5 2 Oeste 6 Oeste 0 -- -- 79
2017-12-11 20:00:00 6.6 0 Calma 5 Nordeste 0.1 -- -- 79
2017-12-11 19:00:00 9.5 2 Noroeste 11 Oeste 0 -- -- 63
2017-12-11 18:00:00 10.9 4 Oeste 12 Oeste 0 -- -- 55
2017-12-11 17:00:00 11.9 6 Oeste 17 Sudoeste 0 -- -- 54
2017-12-11 16:00:00 13.1 5 Sudoeste 33 Oeste 0 -- -- 50
2017-12-11 15:00:00 13.1 9 Oeste 40 Norte 0 -- -- 49
2017-12-11 14:00:00 13.1 10 Noroeste 28 Norte 0 -- -- 54
2017-12-11 13:00:00 12.4 5 Oeste 26 Sudoeste 0 -- -- 67
2017-12-11 12:00:00 12.4 8 Oeste 24 Sudoeste 0.3 -- -- 81
2017-12-11 11:00:00 12.5 10 Oeste 44 Sur 3.7 -- -- 88
2017-12-11 10:00:00 14.6 12 Sudoeste 35 Sudoeste 0.2 -- -- 83
2017-12-11 09:00:00 15.1 13 Sudoeste 51 Sudoeste 0 -- -- 74
2017-12-11 08:00:00 14.7 13 Sudoeste 41 Sudoeste 0 -- -- 74
2017-12-11 07:00:00 14.1 12 Sudoeste 42 Sudoeste 0.4 -- -- 75
2017-12-11 06:00:00 14.1 13 Sudoeste 45 Sudoeste 0.1 -- -- 74
2017-12-11 05:00:00 14.6 15 Sudoeste 41 Sudoeste 0 -- -- 68
2017-12-11 04:00:00 14 12 Sudoeste 31 Oeste 0 -- -- 65
2017-12-11 03:00:00 13.8 10 Sudoeste 33 Oeste 0 -- -- 62
2017-12-11 02:00:00 14.3 11 Sudoeste 33 Sudoeste 0 -- -- 54
2017-12-11 01:00:00 12.9 6 Sudoeste 14 Sudoeste 0 -- -- 62
2017-12-11 00:00:00 10.5 0 Calma 10 Oeste 0 -- -- 65
2017-12-10 23:00:00 12.5 2 Sur 20 Sudoeste 0 -- -- 55
2017-12-10 22:00:00 14 7 Sudoeste 17 Sudoeste 0 -- -- 52
2017-12-10 21:00:00 14 3 Sur 15 Sudoeste 0 -- -- 54
2017-12-10 20:00:00 14.2 4 Oeste 21 Oeste 0 -- -- 52
2017-12-10 19:00:00 14.7 7 Oeste 25 Sudoeste 0 -- -- 50
2017-12-10 18:00:00 14.7 9 Sudoeste 27 Sudoeste 0 -- -- 49
2017-12-10 17:00:00 14.7 10 Sudoeste 32 Sudoeste 0 -- -- 49
2017-12-10 16:00:00 15.3 6 Sudoeste 22 Oeste 0 -- -- 48
2017-12-10 15:00:00 14.7 11 Sudoeste 32 Sur 0 -- -- 50
2017-12-10 14:00:00 15.5 8 Sudoeste 31 Sudoeste 0 -- -- 49
2017-12-10 13:00:00 14.8 10 Sudoeste 28 Sudoeste 0 -- -- 52
2017-12-10 12:00:00 14 8 Oeste 32 Oeste 0 -- -- 54
2017-12-10 11:00:00 13.1 12 Oeste 35 Sudoeste 0 -- -- 58
2017-12-10 10:00:00 11.2 9 Sur 29 Sudoeste 0 -- -- 65
2017-12-10 09:00:00 11.3 6 Sudoeste 19 Sudoeste 0 -- -- 64
2017-12-10 08:00:00 10.1 6 Sudoeste 25 Sudoeste 0 -- -- 68
2017-12-10 07:00:00 9.2 4 Sudoeste 17 Sudoeste 0 -- -- 71
2017-12-10 06:00:00 9.7 4 Sudoeste 29 Noroeste 0 -- -- 68
2017-12-10 05:00:00 10.4 9 Oeste 30 Sudoeste 0 -- -- 65
2017-12-10 04:00:00 9.9 8 Noroeste 25 Noroeste 0 -- -- 70
2017-12-10 03:00:00 10 5 Oeste 19 Oeste 0 -- -- 75
2017-12-10 02:00:00 9.9 7 Noroeste 21 Oeste 0 -- -- 59
2017-12-10 01:00:00 10.1 4 Sudoeste 13 Sudoeste 0 -- -- 55
2017-12-10 00:00:00 8.2 0 Calma 9 Sur 0 -- -- 73
2017-12-09 23:00:00 8.4 3 Oeste 12 Oeste 0 -- -- 69
2017-12-09 22:00:00 8 0 Calma 12 Sudoeste 0.1 -- -- 90
2017-12-09 21:00:00 9.8 3 Sudoeste 19 Oeste 0.3 -- -- 83
2017-12-09 20:00:00 9.5 4 Oeste 13 Oeste 0 -- -- 69
2017-12-09 19:00:00 8.6 2 Oeste 10 Sudoeste 0 -- -- 77
2017-12-09 18:00:00 9.5 4 Sudoeste 13 Oeste 0 -- -- 77
2017-12-09 17:00:00 9.5 3 Sudoeste 10 Sudoeste 0 -- -- 70
2017-12-09 16:00:00 9.7 5 Sudoeste 13 Sudoeste 0 -- -- 63
2017-12-09 15:00:00 10.4 3 Sur 11 Sur 0 -- -- 62
2017-12-09 14:00:00 9.9 0 Calma 5 Nordeste 0 -- -- 62
2017-12-09 13:00:00 9.8 0 Calma 5 Sur 0 -- -- 64
2017-12-09 12:00:00 8.8 0 Calma 6 Norte 0 -- -- 64
2017-12-09 11:00:00 7.5 3 Norte 7 Norte 0.1 -- -- 73
2017-12-09 10:00:00 7.5 2 Nordeste 9 Norte 0 -- -- 65
2017-12-09 09:00:00 6.8 5 Norte 15 Norte 0 -- -- 70
2017-12-09 08:00:00 7.6 6 Norte 16 Norte 0 -- -- 66
2017-12-09 07:00:00 7.9 5 Norte 13 Norte 0 -- -- 70
2017-12-09 06:00:00 8.2 5 Norte 13 Norte 0 -- -- 71
2017-12-09 05:00:00 8.4 6 Norte 12 Nordeste 0 -- -- 76
2017-12-09 04:00:00 8.7 4 Norte 8 Norte 0 -- -- 84
2017-12-09 03:00:00 8.9 3 Norte 9 Norte 0 -- -- 90
2017-12-09 02:00:00 9.2 5 Norte 8 Sudoeste 0 -- -- 91
2017-12-09 01:00:00 9.4 0 Calma 10 Sudoeste 0.2 -- -- 91
2017-12-09 00:00:00 9.7 2 Noroeste 13 Sudoeste 0.3 -- -- 85
2017-12-08 23:00:00 11.5 5 Oeste 18 Sudoeste 0 -- -- 59
2017-12-08 22:00:00 11.8 2 Oeste 11 Oeste 0 -- -- 70
2017-12-08 21:00:00 11.5 4 Oeste 11 Oeste 0 -- -- 74
2017-12-08 20:00:00 10.8 4 Oeste 12 Noroeste 0 -- -- 75
2017-12-08 19:00:00 10.6 3 Oeste 8 Noroeste 0 -- -- 79
2017-12-08 18:00:00 9.1 4 Norte 8 Norte 0 -- -- 82
2017-12-08 17:00:00 10.8 0 Calma 14 Este 0 -- -- 69
2017-12-08 16:00:00 12.6 2 Este 14 Este 0 -- -- 57
2017-12-08 15:00:00 13.3 2 Sudeste 8 Sur 0 -- -- 50
2017-12-08 14:00:00 12.4 0 Calma 7 Sudeste 0 -- -- 50
2017-12-08 13:00:00 12.1 0 Calma 5 Norte 0 -- -- 50
2017-12-08 12:00:00 11.6 0 Calma 7 Norte 0 -- -- 49
2017-12-08 11:00:00 11.4 0 Calma 9 Norte 0 -- -- 46
2017-12-08 10:00:00 8.9 5 Norte 12 Norte 0 -- -- 50
2017-12-08 09:00:00 6.9 4 Norte 10 Norte 0 -- -- 56
2017-12-08 08:00:00 5.2 3 Noroeste 14 Sudoeste 0 -- -- 57
2017-12-08 07:00:00 7.7 3 Oeste 24 Sudoeste 0 -- -- 48
2017-12-08 06:00:00 7.6 12 Sur 24 Sur 0 -- -- 48
2017-12-08 05:00:00 7.7 2 Este 27 Sudoeste 0 -- -- 46
2017-12-08 04:00:00 9.5 6 Oeste 27 Oeste 0 -- -- 40
2017-12-08 03:00:00 8.2 3 Oeste 23 Noroeste 0 -- -- 54
2017-12-08 02:00:00 5.3 2 Noroeste 9 Sudoeste 0 -- -- 61
2017-12-08 01:00:00 6.1 0 Calma 17 Oeste 0 -- -- 58
2017-12-08 00:00:00 8.5 4 Oeste 15 Sur 0 -- -- 57
2017-12-07 23:00:00 7.3 0 Calma 10 Sudoeste 0 -- -- 65
2017-12-07 22:00:00 9 0 Calma 15 Oeste 0 -- -- 65
2017-12-07 21:00:00 11.1 4 Oeste 15 Sudoeste 0 -- -- 56
2017-12-07 20:00:00 10.1 3 Oeste 11 Oeste 0 -- -- 64
2017-12-07 19:00:00 11.4 3 Sudoeste 12 Oeste 0 -- -- 59
2017-12-07 18:00:00 11 3 Sudoeste 10 Sudoeste 0 -- -- 63
2017-12-07 17:00:00 12.3 3 Sur 12 Sudoeste 0 -- -- 59
2017-12-07 16:00:00 13.9 4 Sudoeste 15 Sudoeste 0 -- -- 60
2017-12-07 15:00:00 14 7 Sur 18 Sudoeste 0 -- -- 63
2017-12-07 14:00:00 14.3 7 Oeste 25 Sudoeste 0 -- -- 48
2017-12-07 13:00:00 16.4 10 Sudoeste 27 Sudoeste 0 -- -- 45
2017-12-07 12:00:00 14 8 Oeste 28 Sudoeste 0 -- -- 52
2017-12-07 11:00:00 14.8 6 Oeste 21 Oeste 0 -- -- 55
2017-12-07 10:00:00 12.3 6 Oeste 20 Oeste 0 -- -- 64
2017-12-07 09:00:00 10.8 6 Oeste 20 Oeste 0 -- -- 64
2017-12-07 08:00:00 10.5 6 Oeste 22 Noroeste 0 -- -- 63
2017-12-07 07:00:00 10.7 7 Oeste 28 Noroeste 0 -- -- 63
2017-12-07 06:00:00 10.2 7 Oeste 28 Sudoeste 0 -- -- 63
2017-12-07 05:00:00 10.3 7 Oeste 23 Noroeste 0 -- -- 59
2017-12-07 04:00:00 10.2 8 Oeste 22 Noroeste 0 -- -- 59
2017-12-07 03:00:00 9.5 6 Oeste 22 Sudoeste 0 -- -- 69
2017-12-07 02:00:00 9.5 5 Noroeste 21 Sudoeste 0 -- -- 70
2017-12-07 01:00:00 9.6 6 Oeste 18 Oeste 0 -- -- 71
2017-12-07 00:00:00 9.5 6 Oeste 15 Sudoeste 0 -- -- 74
2017-12-06 23:00:00 8.9 6 Sudoeste 17 Sudoeste 0 -- -- 78
2017-12-06 22:00:00 9.2 5 Sudoeste 14 Sudoeste 0 -- -- 79
2017-12-06 21:00:00 6.8 3 Noroeste 11 Sudoeste 0 -- -- 87
2017-12-06 20:00:00 8 5 Sudoeste 8 Sudoeste 0 -- -- 86
2017-12-06 19:00:00 8.5 4 Sudoeste 8 Sudoeste 0 -- -- 88
2017-12-06 18:00:00 8.7 4 Sudoeste 9 Sudoeste 0 -- -- 84
2017-12-06 17:00:00 11.1 5 Sudoeste 15 Oeste 0 -- -- 73
2017-12-06 16:00:00 12 7 Sudoeste 18 Sudoeste 0 -- -- 64
2017-12-06 15:00:00 12.3 9 Sur 19 Sudoeste 0 -- -- 60
2017-12-06 14:00:00 12.6 12 Sur 23 Sudoeste 0 -- -- 55
2017-12-06 13:00:00 13.8 8 Sur 18 Sudoeste 0 -- -- 54
2017-12-06 12:00:00 13 9 Sur 19 Sur 0 -- -- 50
2017-12-06 11:00:00 13.1 3 Sudeste 9 Sudeste 0 -- -- 49
2017-12-06 10:00:00 7.9 0 Calma 6 Norte 0 -- -- 69
2017-12-06 09:00:00 5.2 5 Norte 10 Norte 0 -- -- 72
2017-12-06 08:00:00 3.8 5 Norte 12 Norte 0 -- -- 77
2017-12-06 07:00:00 4.6 6 Norte 12 Norte 0 -- -- 77
2017-12-06 06:00:00 3.9 5 Norte 10 Norte 0 -- -- 84
2017-12-06 05:00:00 4.3 5 Norte 8 Norte 0 -- -- 85
2017-12-06 04:00:00 4.2 4 Norte 8 Norte 0 -- -- 81
2017-12-06 03:00:00 4.5 3 Noroeste 9 Norte 0 -- -- 77
2017-12-06 02:00:00 4.2 3 Norte 6 Norte 0 -- -- 76
2017-12-06 01:00:00 4.9 4 Norte 11 Norte 0 -- -- 71
2017-12-06 00:00:00 4.8 4 Norte 10 Norte 0 -- -- 70
2017-12-05 23:00:00 4.6 5 Norte 10 Norte 0 -- -- 71
2017-12-05 22:00:00 4.9 3 Noroeste 12 Norte 0 -- -- 71
2017-12-05 21:00:00 5.8 3 Noroeste 15 Norte 0 -- -- 70
2017-12-05 20:00:00 6.4 4 Norte 13 Norte 0 -- -- 74
2017-12-05 19:00:00 6.5 6 Norte 13 Norte 0 -- -- 78
2017-12-05 18:00:00 7.1 5 Norte 11 Norte 0 -- -- 76
2017-12-05 17:00:00 9.8 2 Sudoeste 13 Sur 0 -- -- 63
2017-12-05 16:00:00 11.3 5 Sudoeste 16 Sudoeste 0 -- -- 52
2017-12-05 15:00:00 11.6 7 Sur 15 Sur 0 -- -- 49
2017-12-05 14:00:00 12.2 7 Sur 17 Sur 0 -- -- 47
2017-12-05 13:00:00 13.3 6 Sur 15 Sur 0 -- -- 41
2017-12-05 12:00:00 13.2 6 Sur 14 Sur 0 -- -- 39
2017-12-05 11:00:00 14.1 2 Sudeste 8 Sur 0 -- -- 43
2017-12-05 10:00:00 8.4 3 Norte 12 Norte 0 -- -- 63
2017-12-05 09:00:00 6.4 5 Norte 13 Norte 0 -- -- 70
2017-12-05 08:00:00 4.9 8 Norte 14 Norte 0 -- -- 80
2017-12-05 07:00:00 4.5 8 Norte 15 Norte 0 -- -- 81
2017-12-05 06:00:00 4.3 7 Norte 12 Norte 0 -- -- 81
2017-12-05 05:00:00 4.1 6 Norte 12 Norte 0 -- -- 78
2017-12-05 04:00:00 4.5 6 Norte 16 Norte 0 -- -- 73
2017-12-05 03:00:00 5.1 10 Norte 16 Norte 0 -- -- 66
2017-12-05 02:00:00 5 8 Norte 14 Norte 0 -- -- 61
2017-12-05 01:00:00 5 6 Norte 14 Noroeste 0 -- -- 57
2017-12-05 00:00:00 5.8 9 Norte 15 Norte 0 -- -- 56
2017-12-04 23:00:00 5.4 8 Norte 17 Norte 0 -- -- 55
2017-12-04 22:00:00 5.5 8 Norte 16 Norte 0 -- -- 57
2017-12-04 21:00:00 5.5 6 Norte 13 Norte 0 -- -- 61
2017-12-04 20:00:00 6 6 Norte 13 Norte 0 -- -- 60
2017-12-04 19:00:00 5.5 6 Norte 13 Norte 0 -- -- 68
2017-12-04 18:00:00 6.6 7 Norte 13 Norte 0 -- -- 65
2017-12-04 17:00:00 7.9 0 Calma 5 Sur 0 -- -- 58
2017-12-04 16:00:00 10.9 3 Sur 8 Sudeste 0 -- -- 46
2017-12-04 15:00:00 11.7 3 Sudeste 10 Sudeste 0 -- -- 45
2017-12-04 14:00:00 12.6 2 Sur 10 Nordeste 0 -- -- 28
2017-12-04 13:00:00 13.8 3 Sudeste 13 Nordeste 0 -- -- 30
2017-12-04 12:00:00 13 0 Calma 11 Nordeste 0 -- -- 29
2017-12-04 11:00:00 13 0 Calma 8 Nordeste 0 -- -- 31
2017-12-04 10:00:00 8.6 0 Calma 8 Norte 0 -- -- 46
2017-12-04 09:00:00 6 3 Noroeste 13 Norte 0 -- -- 37
2017-12-04 08:00:00 2.8 5 Norte 10 Norte 0 -- -- 41
2017-12-04 07:00:00 3.9 5 Noroeste 13 Norte 0 -- -- 40
2017-12-04 06:00:00 3.4 5 Norte 14 Norte 0 -- -- 39
2017-12-04 05:00:00 3.7 5 Norte 18 Norte 0 -- -- 38
2017-12-04 04:00:00 5 9 Norte 16 Norte 0 -- -- 36
2017-12-04 03:00:00 4.7 6 Norte 15 Norte 0 -- -- 37
2017-12-04 02:00:00 5.6 8 Norte 17 Norte 0 -- -- 36
2017-12-04 01:00:00 5.5 7 Norte 17 Norte 0 -- -- 39
2017-12-04 00:00:00 5.1 6 Norte 18 Norte 0 -- -- 41
2017-12-03 23:00:00 5 9 Norte 18 Norte 0 -- -- 45
2017-12-03 22:00:00 5 9 Norte 18 Norte 0 -- -- 43
2017-12-03 21:00:00 5 6 Norte 17 Norte 0 -- -- 42
2017-12-03 20:00:00 5.3 9 Norte 16 Norte 0 -- -- 41
2017-12-03 19:00:00 4.9 8 Norte 15 Norte 0 -- -- 43
2017-12-03 18:00:00 5 6 Norte 12 Nordeste 0 -- -- 44
2017-12-03 17:00:00 6.7 3 Norte 10 Sudoeste 0 -- -- 40
2017-12-03 16:00:00 10.7 5 Sudoeste 13 Sur 0 -- -- 33
2017-12-03 15:00:00 11 5 Sur 15 Sur 0 -- -- 36
2017-12-03 14:00:00 11.9 5 Sur 19 Sudoeste 0 -- -- 35
2017-12-03 13:00:00 12.3 6 Sur 18 Sudoeste 0 -- -- 34
2017-12-03 12:00:00 12.1 3 Sudeste 12 Sudeste 0 -- -- 35
2017-12-03 11:00:00 11.9 2 Este 12 Norte 0 -- -- 34
2017-12-03 10:00:00 7.2 8 Norte 16 Noroeste 0 -- -- 37
2017-12-03 09:00:00 5.7 5 Oeste 16 Sudoeste 0 -- -- 42
2017-12-03 08:00:00 3.1 6 Norte 13 Norte 0 -- -- 56
2017-12-03 07:00:00 2.4 6 Norte 13 Norte 0 -- -- 56
2017-12-03 06:00:00 2.7 6 Norte 14 Norte 0 -- -- 56
2017-12-03 05:00:00 3.1 8 Norte 16 Norte 0 -- -- 51
2017-12-03 04:00:00 3.7 8 Norte 14 Norte 0 -- -- 49
2017-12-03 03:00:00 3.4 5 Norte 9 Norte 0 -- -- 51
2017-12-03 02:00:00 3.4 0 Calma 8 Sudeste 0 -- -- 53
2017-12-03 01:00:00 6.9 5 Oeste 13 Sudoeste 0 -- -- 39
2017-12-03 00:00:00 6.7 5 Sudoeste 16 Sudoeste 0 -- -- 42
2017-12-02 23:00:00 6.5 4 Sudoeste 18 Oeste 0 -- -- 46
2017-12-02 22:00:00 6 0 Calma 12 Norte 0 -- -- 52
2017-12-02 21:00:00 6.3 7 Norte 21 Noroeste 0 -- -- 48
2017-12-02 20:00:00 4.9 0 Calma 6 Sudoeste 0 -- -- 52
2017-12-02 19:00:00 5.7 0 Calma 13 Norte 0 -- -- 44
2017-12-02 18:00:00 6.4 6 Norte 16 Noroeste 0 -- -- 36
2017-12-02 17:00:00 7.2 5 Norte 14 Sudoeste 0 -- -- 35
2017-12-02 16:00:00 7.7 2 Norte 5 Noroeste 0 -- -- 35
2017-12-02 15:00:00 8.8 0 Calma 10 Sudoeste 0 -- -- 32
2017-12-02 14:00:00 8.7 4 Sudoeste 23 Sudoeste 0 -- -- 29
2017-12-02 13:00:00 8.5 11 Sudoeste 24 Sudoeste 0 -- -- 29
2017-12-02 12:00:00 7 7 Oeste 26 Oeste 0 -- -- 34
2017-12-02 11:00:00 5.7 10 Oeste 27 Oeste 0 -- -- 36
2017-12-02 10:00:00 4.9 7 Noroeste 22 Oeste 0 -- -- 36
2017-12-02 09:00:00 3.7 4 Oeste 14 Sudoeste 0 -- -- 45
2017-12-02 08:00:00 -0.7 5 Norte 18 Norte 0 -- -- 70
2017-12-02 07:00:00 0 6 Norte 14 Norte 0 -- -- 67
2017-12-02 06:00:00 -0.4 7 Norte 14 Noroeste 0 -- -- 70
2017-12-02 05:00:00 -0.3 6 Norte 18 Norte 0 -- -- 68
2017-12-02 04:00:00 0.5 9 Norte 17 Norte 0 -- -- 64
2017-12-02 03:00:00 1.3 6 Norte 15 Oeste 0 -- -- 57
2017-12-02 02:00:00 -0.1 3 Nordeste 9 Nordeste 0 -- -- 75
2017-12-02 01:00:00 -0.6 3 Norte 10 Norte 0 -- -- 79
2017-12-02 00:00:00 0.3 5 Norte 13 Norte 0 -- -- 76
2017-12-01 23:00:00 0.1 5 Norte 12 Norte 0 -- -- 83
2017-12-01 22:00:00 1.5 8 Noroeste 17 Norte 0 -- -- 75
2017-12-01 21:00:00 1.1 6 Norte 16 Norte 0 -- -- 82
2017-12-01 20:00:00 1.4 3 Noroeste 8 Noroeste 0 -- -- 87
2017-12-01 19:00:00 2.6 6 Norte 16 Noroeste 0 -- -- 73
2017-12-01 18:00:00 2.3 7 Norte 13 Norte 0 -- -- 86
2017-12-01 17:00:00 3 3 Oeste 13 Nordeste 0 -- -- 85
2017-12-01 16:00:00 2.8 3 Norte 26 Norte 0.6 -- -- 89
2017-12-01 15:00:00 3 7 Norte 21 Nordeste 6.5 -- -- 91
2017-12-01 14:00:00 7.4 5 Norte 10 Sudoeste 0.1 -- -- 61
2017-12-01 13:00:00 8.8 4 Sur 13 Sudoeste 0 -- -- 50
2017-12-01 12:00:00 8.9 6 Sudoeste 13 Sur 0 -- -- 45
2017-12-01 11:00:00 9.4 7 Sudoeste 14 Sur 0 -- -- 41
2017-12-01 10:00:00 6.7 0 Calma 14 Nordeste 0 -- -- 52
2017-12-01 09:00:00 4.4 8 Norte 15 Norte 0 -- -- 58
2017-12-01 08:00:00 1.9 6 Norte 12 Norte 0 -- -- 66
2017-12-01 07:00:00 1.9 0 Calma 12 Norte 0 -- -- 67
2017-12-01 06:00:00 2.8 4 Oeste 11 Noroeste 0 -- -- 66
2017-12-01 05:00:00 2.7 2 Nordeste 14 Sudoeste 0 -- -- 60
2017-12-01 04:00:00 4.8 9 Oeste 16 Oeste 0 -- -- 49
2017-12-01 03:00:00 5.8 11 Oeste 19 Sudoeste 0 -- -- 43
2017-12-01 02:00:00 4.2 9 Norte 16 Norte 0 -- -- 49
2017-12-01 01:00:00 5.1 9 Norte 14 Noroeste 0 -- -- 54
2017-12-01 00:00:00 4.5 6 Norte 14 Norte 0 -- -- 70
2017-11-30 23:00:00 4.9 7 Norte 19 Norte 0 -- -- 67
2017-11-30 22:00:00 5.7 9 Norte 17 Norte 0 -- -- 68
2017-11-30 21:00:00 5.4 8 Norte 16 Norte 0 -- -- 70
2017-11-30 20:00:00 5.5 7 Norte 16 Norte 0 -- -- 72
2017-11-30 19:00:00 5 7 Norte 13 Norte 0 -- -- 76
2017-11-30 18:00:00 5.8 5 Norte 10 Norte 0 -- -- 75
2017-11-30 17:00:00 7.7 0 Calma 6 Sur 0 -- -- 63
2017-11-30 16:00:00 10 2 Sur 10 Sudoeste 0 -- -- 50
2017-11-30 15:00:00 9.9 4 Sur 12 Sur 0 -- -- 48
2017-11-30 14:00:00 10.9 4 Sur 13 Sur 0 -- -- 46
2017-11-30 13:00:00 12 4 Sudeste 15 Sur 0 -- -- 47
2017-11-30 12:00:00 11.4 4 Sur 14 Sur 0 -- -- 53
2017-11-30 11:00:00 11.3 0 Calma 9 Sudeste 0 -- -- 58
2017-11-30 10:00:00 8 0 Calma 14 Noroeste 0 -- -- 73
2017-11-30 09:00:00 5.2 8 Norte 15 Norte 0 -- -- 84
2017-11-30 08:00:00 3.8 7 Norte 14 Norte 0 -- -- 89
2017-11-30 07:00:00 3.7 5 Norte 12 Norte 0 -- -- 88
2017-11-30 06:00:00 4.3 5 Noroeste 13 Norte 0 -- -- 83
2017-11-30 05:00:00 4.6 5 Norte 16 Norte 0 -- -- 81
2017-11-30 04:00:00 5.5 6 Noroeste 12 Norte 0 -- -- 78
2017-11-30 03:00:00 5.1 4 Norte 14 Norte 0 -- -- 80
2017-11-30 02:00:00 5.9 7 Norte 11 Norte 0 -- -- 79
2017-11-30 01:00:00 6.3 3 Norte 15 Norte 0 -- -- 78
2017-11-30 00:00:00 7 6 Norte 16 Norte 0 -- -- 75
2017-11-29 23:00:00 6 0 Calma 12 Norte 0 -- -- 76
2017-11-29 22:00:00 7.5 7 Norte 13 Sudoeste 0 -- -- 69
2017-11-29 21:00:00 8.2 0 Calma 6 Nordeste 0 -- -- 69
2017-11-29 20:00:00 8.8 3 Nordeste 12 Norte 0 -- -- 64
2017-11-29 19:00:00 8.8 4 Norte 9 Nordeste 0 -- -- 63
2017-11-29 18:00:00 8.8 3 Norte 6 Nordeste 0 -- -- 61
2017-11-29 17:00:00 9.4 3 Norte 16 Noroeste 0 -- -- 55
2017-11-29 16:00:00 10.2 7 Noroeste 21 Sudoeste 0 -- -- 53
2017-11-29 15:00:00 10.7 6 Norte 21 Norte 0 -- -- 54
2017-11-29 14:00:00 10.7 9 Norte 21 Norte 0 -- -- 54
2017-11-29 13:00:00 11.1 6 Norte 17 Norte 0 -- -- 48
2017-11-29 12:00:00 11.1 8 Norte 18 Norte 0 -- -- 49
2017-11-29 11:00:00 11.4 6 Norte 16 Norte 0 -- -- 51
2017-11-29 10:00:00 10.2 7 Norte 15 Norte 0 -- -- 62
2017-11-29 09:00:00 8.6 7 Norte 14 Norte 0 -- -- 72
2017-11-29 08:00:00 7.5 5 Norte 15 Norte 0 -- -- 80
2017-11-29 07:00:00 7.3 9 Norte 14 Norte 0 -- -- 78
2017-11-29 06:00:00 7 8 Norte 13 Noroeste 0 -- -- 80
2017-11-29 05:00:00 7.7 8 Norte 15 Norte 0 -- -- 78
2017-11-29 04:00:00 7.7 7 Norte 14 Norte 0 -- -- 79
2017-11-29 03:00:00 7.6 9 Norte 15 Norte 0 -- -- 79
2017-11-29 02:00:00 7.8 8 Norte 17 Norte 0 -- -- 79
2017-11-29 01:00:00 7.2 7 Norte 15 Norte 0 -- -- 82
2017-11-29 00:00:00 7.4 7 Norte 18 Norte 0 -- -- 81
2017-11-28 23:00:00 7.6 8 Norte 15 Norte 0 -- -- 82
2017-11-28 22:00:00 8.1 9 Norte 15 Norte 0 -- -- 82
2017-11-28 21:00:00 7.4 8 Norte 13 Nordeste 0 -- -- 84
2017-11-28 20:00:00 7.7 6 Norte 11 Norte 0 -- -- 84
2017-11-28 19:00:00 8.5 6 Norte 12 Norte 0 -- -- 80
2017-11-28 18:00:00 9.8 4 Oeste 11 Sudoeste 0 -- -- 76
2017-11-28 17:00:00 11.6 0 Calma 13 Nordeste 0 -- -- 65
2017-11-28 16:00:00 12.7 2 Este 9 Sudeste 0 -- -- 44
2017-11-28 15:00:00 12.7 2 Este 11 Sudeste 0 -- -- 43
2017-11-28 14:00:00 13.7 3 Este 16 Nordeste 0 -- -- 39
2017-11-28 13:00:00 14.2 3 Este 14 Nordeste 0 -- -- 37
2017-11-28 12:00:00 14.6 3 Nordeste 15 Norte 0 -- -- 35
2017-11-28 11:00:00 16 3 Norte 8 Norte 0 -- -- 29
2017-11-28 10:00:00 13.7 2 Oeste 15 Oeste 0 -- -- 32
2017-11-28 09:00:00 11.8 3 Oeste 21 Sudoeste 0 -- -- 35
2017-11-28 08:00:00 10.7 6 Oeste 22 Noroeste 0 -- -- 39
2017-11-28 07:00:00 10.6 7 Noroeste 24 Noroeste 0 -- -- 40
2017-11-28 06:00:00 10.2 8 Oeste 21 Sudoeste 0 -- -- 45
2017-11-28 05:00:00 9.6 5 Oeste 18 Sudoeste 0 -- -- 50
2017-11-28 04:00:00 9.1 5 Oeste 20 Norte 0 -- -- 52
2017-11-28 03:00:00 9.6 5 Noroeste 18 Noroeste 0 -- -- 52
2017-11-28 02:00:00 7.3 0 Calma 21 Noroeste 0 -- -- 63
2017-11-28 01:00:00 9.9 3 Oeste 18 Oeste 0 -- -- 59
2017-11-28 00:00:00 10.1 6 Noroeste 18 Noroeste 0 -- -- 53
2017-11-27 23:00:00 9.8 5 Oeste 17 Sudoeste 0 -- -- 52
2017-11-27 22:00:00 9.6 6 Oeste 20 Sudoeste 0 -- -- 55
2017-11-27 21:00:00 9.4 7 Oeste 15 Oeste 0 -- -- 57
2017-11-27 20:00:00 7.3 0 Calma 7 Sudoeste 0 -- -- 72
2017-11-27 19:00:00 8.1 3 Sudoeste 7 Sudoeste 0 -- -- 69
2017-11-27 18:00:00 8.5 3 Norte 6 Oeste 0 -- -- 73
2017-11-27 17:00:00 10.9 0 Calma 14 Sudoeste 0 -- -- 61
2017-11-27 16:00:00 12.3 5 Sur 21 Sudoeste 0 -- -- 55
2017-11-27 15:00:00 12.6 9 Sur 24 Sudoeste 0 -- -- 53
2017-11-27 14:00:00 13.1 9 Sur 21 Sur 0 -- -- 50
2017-11-27 13:00:00 13.7 6 Sur 19 Sur 0 -- -- 46
2017-11-27 12:00:00 14.3 5 Sudoeste 14 Sur 0 -- -- 42
2017-11-27 11:00:00 13.3 4 Sur 11 Este 0 -- -- 49
2017-11-27 10:00:00 10.4 2 Nordeste 9 Norte 0 -- -- 55
2017-11-27 09:00:00 6.5 5 Norte 13 Norte 0 -- -- 65
2017-11-27 08:00:00 5.2 7 Norte 16 Norte 0 -- -- 65
2017-11-27 07:00:00 5.3 8 Norte 17 Norte 0 -- -- 63
2017-11-27 06:00:00 5.2 8 Norte 15 Norte 0 -- -- 65
2017-11-27 05:00:00 5.3 7 Norte 14 Norte 0 -- -- 66
2017-11-27 04:00:00 5.1 3 Oeste 12 Norte 0 -- -- 66
2017-11-27 03:00:00 6.2 5 Norte 12 Norte 0 -- -- 61
2017-11-27 02:00:00 6.2 4 Norte 14 Sudoeste 0 -- -- 60
2017-11-27 01:00:00 6.4 4 Norte 14 Norte 0 -- -- 63
2017-11-27 00:00:00 7.4 8 Norte 15 Norte 0 -- -- 56
2017-11-26 23:00:00 7.2 5 Norte 15 Norte 0 -- -- 61
2017-11-26 22:00:00 7.9 7 Norte 15 Norte 0 -- -- 58
2017-11-26 21:00:00 8.3 9 Norte 14 Norte 0 -- -- 67
2017-11-26 20:00:00 8.9 7 Norte 14 Norte 0 -- -- 70
2017-11-26 19:00:00 8.6 4 Norte 9 Norte 0 -- -- 76
2017-11-26 18:00:00 8.7 4 Noroeste 10 Noroeste 0 -- -- 76
2017-11-26 17:00:00 11.5 0 Calma 14 Sudoeste 0 -- -- 58
2017-11-26 16:00:00 12.9 6 Sudoeste 24 Sudoeste 0 -- -- 52
2017-11-26 15:00:00 12.8 12 Sur 21 Sur 0 -- -- 51
2017-11-26 14:00:00 13.8 10 Sur 18 Sur 0 -- -- 45
2017-11-26 13:00:00 14.7 3 Este 10 Sur 0 -- -- 39
2017-11-26 12:00:00 13.4 2 Norte 13 Norte 0 -- -- 44
2017-11-26 11:00:00 11 6 Norte 15 Norte 0 -- -- 51
2017-11-26 10:00:00 9.5 5 Norte 15 Norte 0 -- -- 60
2017-11-26 09:00:00 8.4 9 Norte 16 Norte 0 -- -- 66
2017-11-26 08:00:00 8.1 6 Noroeste 13 Sudoeste 0 -- -- 72
2017-11-26 07:00:00 7 4 Noroeste 13 Norte 0 -- -- 83
2017-11-26 06:00:00 7.8 6 Norte 14 Norte 0 -- -- 78
2017-11-26 05:00:00 8.2 6 Norte 18 Norte 0 -- -- 82
2017-11-26 04:00:00 8 6 Norte 12 Norte 0 -- -- 87
2017-11-26 03:00:00 8.6 6 Norte 12 Norte 0 -- -- 91
2017-11-26 02:00:00 9.2 2 Norte 9 Norte 0 -- -- 91
2017-11-26 01:00:00 9.2 4 Noroeste 10 Norte 0 -- -- 93
2017-11-26 00:00:00 9.7 3 Nordeste 14 Norte 0.1 -- -- 91
2017-11-25 23:00:00 10.2 8 Norte 17 Oeste 3.1 -- -- 89
2017-11-25 22:00:00 11.7 0 Calma 8 Norte 1.9 -- -- 89
2017-11-25 21:00:00 13.7 0 Calma 9 Sudoeste 0 -- -- 76
2017-11-25 20:00:00 13.5 0 Calma 4 Oeste 0 -- -- 78
2017-11-25 19:00:00 13.8 2 Oeste 5 Sudoeste 0 -- -- 77
2017-11-25 18:00:00 14.2 4 Sudoeste 6 Sudoeste 0 -- -- 74
2017-11-25 17:00:00 14.6 0 Calma 4 Este 0 -- -- 69
2017-11-25 16:00:00 15.7 0 Calma 8 Este 0 -- -- 62
2017-11-25 15:00:00 15.6 0 Calma 12 Nordeste 0 -- -- 63
2017-11-25 14:00:00 17.4 0 Calma 12 Sudeste 0 -- -- 64
2017-11-25 13:00:00 15.3 2 Nordeste 11 Nordeste 0 -- -- 80
2017-11-25 12:00:00 14.7 4 Este 17 Sudeste 0 -- -- 70
2017-11-25 11:00:00 14.8 0 Calma 6 Norte 0 -- -- 63
2017-11-25 10:00:00 14.9 0 Calma 7 Sudoeste 0 -- -- 61
2017-11-25 09:00:00 12.9 2 Noroeste 11 Sur 0 -- -- 64
2017-11-25 08:00:00 13.7 0 Calma 13 Sudoeste 0 -- -- 55
2017-11-25 07:00:00 13.1 3 Sudoeste 14 Sudoeste 0 -- -- 56
2017-11-25 06:00:00 14.5 3 Oeste 13 Sudoeste 0 -- -- 54
2017-11-25 05:00:00 12.2 3 Oeste 10 Noroeste 0 -- -- 69
2017-11-25 04:00:00 10.6 0 Calma 5 Norte 0 -- -- 73
2017-11-25 03:00:00 11.2 2 Oeste 7 Oeste 0 -- -- 70
2017-11-25 02:00:00 10.5 0 Calma 5 Norte 0 -- -- 71
2017-11-25 01:00:00 10.8 2 Norte 5 Norte 0 -- -- 70
2017-11-25 00:00:00 11.2 0 Calma 5 Este 0 -- -- 77
2017-11-24 23:00:00 12.6 0 Calma 7 Norte 0 -- -- 74
2017-11-24 22:00:00 13.3 0 Calma 5 Este 0 -- -- 70
2017-11-24 21:00:00 14.7 0 Calma 5 Sur 0 -- -- 56
2017-11-24 20:00:00 15.8 0 Calma 10 Sudoeste 0 -- -- 41
2017-11-24 19:00:00 17 2 Oeste 14 Oeste 0 -- -- 38
2017-11-24 18:00:00 17.4 4 Oeste 11 Oeste 0 -- -- 43
2017-11-24 17:00:00 16.5 3 Oeste 10 Sur 0 -- -- 64
2017-11-24 16:00:00 17.8 4 Sur 15 Sudoeste 0 -- -- 60
2017-11-24 15:00:00 18.4 6 Sudoeste 18 Sudoeste 0 -- -- 45
2017-11-24 14:00:00 17.8 9 Sur 17 Sur 0 -- -- 58
2017-11-24 13:00:00 18.4 4 Sudeste 14 Sur 0 -- -- 58
2017-11-24 12:00:00 17.3 3 Sur 10 Sudeste 0 -- -- 64
2017-11-24 11:00:00 18 3 Sur 8 Sur 0 -- -- 68
2017-11-24 10:00:00 12.5 3 Norte 8 Norte 0 -- -- 79
2017-11-24 09:00:00 11.6 3 Norte 7 Norte 0 -- -- 86
2017-11-24 08:00:00 10.8 2 Norte 8 Norte 0 -- -- 89
2017-11-24 07:00:00 10.6 4 Norte 9 Norte 0 -- -- 86
2017-11-24 06:00:00 9.8 5 Norte 9 Norte 0 -- -- 83
2017-11-24 05:00:00 10.8 3 Noroeste 11 Norte 0 -- -- 89
2017-11-24 04:00:00 10.3 5 Norte 9 Norte 0 -- -- 89
2017-11-24 03:00:00 10 4 Nordeste 6 Norte 0 -- -- 84
2017-11-24 02:00:00 9.3 0 Calma 8 Nordeste 0 -- -- 80
2017-11-24 01:00:00 10.4 2 Norte 9 Norte 0 -- -- 80
2017-11-24 00:00:00 10.3 3 Norte 6 Noroeste 0 -- -- 91
2017-11-23 23:00:00 11.2 3 Norte 9 Nordeste 0 -- -- 91
2017-11-23 22:00:00 11.2 3 Norte 5 Norte 0 -- -- 92
2017-11-23 21:00:00 11.7 0 Calma 11 Sudoeste 0 -- -- 90
2017-11-23 20:00:00 14.7 6 Sudoeste 17 Oeste 0 -- -- 84
2017-11-23 19:00:00 15.4 9 Sudoeste 19 Sudoeste 0 -- -- 81
2017-11-23 18:00:00 15.4 9 Sudoeste 20 Sudoeste 0 -- -- 84
2017-11-23 17:00:00 15.9 7 Sudoeste 26 Sudoeste 0 -- -- 83
2017-11-23 16:00:00 16.8 12 Sudoeste 24 Sudoeste 0 -- -- 78
2017-11-23 15:00:00 16.9 9 Sur 20 Sur 0 -- -- 69
2017-11-23 14:00:00 18 8 Sur 24 Sudoeste 0 -- -- 55
2017-11-23 13:00:00 19.3 7 Sudoeste 22 Oeste 0 -- -- 48
2017-11-23 12:00:00 19.1 6 Sudoeste 21 Sudoeste 0 -- -- 48
2017-11-23 11:00:00 18.3 2 Sudoeste 22 Oeste 0 -- -- 51
2017-11-23 10:00:00 15.8 4 Noroeste 18 Noroeste 0 -- -- 61
2017-11-23 09:00:00 15 4 Noroeste 14 Norte 0 -- -- 69
2017-11-23 08:00:00 12.8 8 Noroeste 19 Noroeste 0 -- -- 78
2017-11-23 07:00:00 12.7 9 Noroeste 18 Oeste 0 -- -- 79
2017-11-23 06:00:00 12.4 5 Noroeste 15 Norte 0 -- -- 79
2017-11-23 05:00:00 11.9 7 Noroeste 13 Norte 0 -- -- 83
2017-11-23 04:00:00 12 4 Noroeste 13 Norte 0 -- -- 80
2017-11-23 03:00:00 12.7 8 Noroeste 14 Noroeste 0 -- -- 77
2017-11-23 02:00:00 12.8 9 Noroeste 17 Noroeste 0 -- -- 74
2017-11-23 01:00:00 13.4 9 Noroeste 15 Noroeste 0 -- -- 74
2017-11-23 00:00:00 13.3 9 Noroeste 18 Oeste 0 -- -- 74
2017-11-22 23:00:00 13.3 6 Sudoeste 16 Sudoeste 0 -- -- 80
2017-11-22 22:00:00 12.1 7 Sudoeste 13 Sudoeste 0 -- -- 89
2017-11-22 21:00:00 12.6 4 Sudoeste 11 Oeste 0 -- -- 89
2017-11-22 20:00:00 13.8 3 Oeste 12 Oeste 0 -- -- 89
2017-11-22 19:00:00 14.1 2 Oeste 6 Oeste 0 -- -- 85
2017-11-22 18:00:00 14.2 2 Sudoeste 13 Sudoeste 0 -- -- 85
2017-11-22 17:00:00 15.4 6 Sudoeste 17 Sudoeste 0 -- -- 78
2017-11-22 16:00:00 16.5 6 Sur 27 Sur 0 -- -- 71
2017-11-22 15:00:00 17.1 8 Sur 23 Sur 0 -- -- 65
2017-11-22 14:00:00 17.1 9 Sudoeste 28 Sur 0 -- -- 60
2017-11-22 13:00:00 17.6 12 Sur 26 Sudoeste 0 -- -- 59
2017-11-22 12:00:00 17.5 10 Sudoeste 19 Sur 0 -- -- 57
2017-11-22 11:00:00 17.2 8 Sudoeste 18 Oeste 0 -- -- 59
2017-11-22 10:00:00 15.6 7 Sudoeste 20 Oeste 0 -- -- 64
2017-11-22 09:00:00 14.3 6 Sudoeste 17 Oeste 0 -- -- 73
2017-11-22 08:00:00 10.1 4 Oeste 10 Oeste 0 -- -- 84
2017-11-22 07:00:00 7.6 3 Nordeste 6 Norte 0 -- -- 78
2017-11-22 06:00:00 7.4 2 Noroeste 5 Sudoeste 0 -- -- 79
2017-11-22 05:00:00 6.9 4 Norte 6 Norte 0 -- -- 80
2017-11-22 04:00:00 7 3 Norte 5 Norte 0 -- -- 80
2017-11-22 03:00:00 7.5 3 Norte 7 Norte 0 -- -- 78
2017-11-22 02:00:00 7.7 3 Norte 7 Noroeste 0 -- -- 79
2017-11-22 01:00:00 7.9 2 Norte 11 Noroeste 0 -- -- 79
2017-11-22 00:00:00 9.3 6 Norte 10 Norte 0 -- -- 74
2017-11-21 23:00:00 9.2 5 Norte 10 Norte 0 -- -- 74
2017-11-21 22:00:00 9.7 6 Norte 13 Norte 0 -- -- 75
2017-11-21 21:00:00 10.2 6 Norte 10 Norte 0 -- -- 75
2017-11-21 20:00:00 10.4 5 Norte 10 Norte 0 -- -- 77
2017-11-21 19:00:00 10.5 5 Norte 8 Norte 0 -- -- 81
2017-11-21 18:00:00 11.1 3 Norte 6 Noroeste 0 -- -- 76
2017-11-21 17:00:00 13.2 0 Calma 6 Sur 0 -- -- 64
2017-11-21 16:00:00 15.6 3 Sur 7 Sudeste 0 -- -- 52
2017-11-21 15:00:00 16.1 4 Sur 9 Sudeste 0 -- -- 50
2017-11-21 14:00:00 17.1 3 Sur 9 Sur 0 -- -- 47
2017-11-21 13:00:00 17.9 3 Sudeste 10 Sudeste 0 -- -- 49
2017-11-21 12:00:00 17.7 2 Sudeste 9 Nordeste 0 -- -- 47
2017-11-21 11:00:00 18.8 3 Sudeste 7 Sur 0 -- -- 44
2017-11-21 10:00:00 17 0 Calma 5 Nordeste 0 -- -- 49
2017-11-21 09:00:00 12.4 3 Norte 10 Norte 0 -- -- 53
2017-11-21 08:00:00 9.1 4 Noroeste 10 Norte 0 -- -- 63
2017-11-21 07:00:00 7.8 4 Norte 7 Norte 0 -- -- 61
2017-11-21 06:00:00 8.7 3 Norte 9 Oeste 0 -- -- 59
2017-11-21 05:00:00 8 5 Norte 8 Nordeste 0 -- -- 64
2017-11-21 04:00:00 7.2 3 Norte 9 Nordeste 0 -- -- 68
2017-11-21 03:00:00 7.7 4 Norte 8 Norte 0 -- -- 67
2017-11-21 02:00:00 8.5 5 Norte 9 Norte 0 -- -- 64
2017-11-21 01:00:00 8.3 4 Norte 7 Norte 0 -- -- 65
2017-11-21 00:00:00 8.1 3 Norte 8 Norte 0 -- -- 68
2017-11-20 23:00:00 8.6 3 Norte 8 Norte 0 -- -- 67
2017-11-20 22:00:00 8.9 3 Norte 9 Norte 0 -- -- 72
2017-11-20 21:00:00 9.1 3 Norte 8 Sudoeste 0 -- -- 74
2017-11-20 20:00:00 9.5 0 Calma 7 Norte 0 -- -- 76
2017-11-20 19:00:00 10.7 3 Noroeste 10 Norte 0 -- -- 74
2017-11-20 18:00:00 11.1 4 Norte 8 Norte 0 -- -- 66
2017-11-20 17:00:00 14.1 3 Sudoeste 10 Sudoeste 0 -- -- 54
2017-11-20 16:00:00 15.5 5 Sur 13 Sudoeste 0 -- -- 60
2017-11-20 15:00:00 16.2 6 Sur 13 Sudoeste 0 -- -- 58
2017-11-20 14:00:00 16.7 5 Sur 12 Sur 0 -- -- 54
2017-11-20 13:00:00 17.4 3 Sudeste 13 Sudeste 0 -- -- 54
2017-11-20 12:00:00 17.5 4 Sur 12 Sur 0 -- -- 52
2017-11-20 11:00:00 18.4 3 Sudeste 9 Sudeste 0 -- -- 52
2017-11-20 10:00:00 16.1 3 Norte 11 Norte 0 -- -- 56
2017-11-20 09:00:00 11.1 6 Norte 14 Norte 0 -- -- 83
2017-11-20 08:00:00 9.6 6 Norte 12 Norte 0 -- -- 88
2017-11-20 07:00:00 9.5 6 Norte 13 Norte 0 -- -- 88
2017-11-20 06:00:00 9.6 6 Noroeste 14 Noroeste 0 -- -- 89
2017-11-20 05:00:00 9.1 8 Norte 16 Norte 0 -- -- 83
2017-11-20 04:00:00 9.4 6 Norte 11 Noroeste 0 -- -- 88
2017-11-20 03:00:00 9.2 5 Norte 10 Norte 0 -- -- 82
2017-11-20 02:00:00 9.1 5 Norte 12 Norte 0 -- -- 72
2017-11-20 01:00:00 9 5 Norte 10 Norte 0 -- -- 63
2017-11-20 00:00:00 9.6 4 Norte 12 Norte 0 -- -- 56
2017-11-19 23:00:00 9.8 6 Norte 15 Norte 0 -- -- 54
2017-11-19 22:00:00 10 5 Noroeste 13 Norte 0 -- -- 60
2017-11-19 21:00:00 9.5 7 Noroeste 13 Norte 0 -- -- 69
2017-11-19 20:00:00 10.2 7 Norte 12 Norte 0 -- -- 74
2017-11-19 19:00:00 10.7 6 Norte 11 Norte 0 -- -- 85
2017-11-19 18:00:00 11.5 4 Norte 9 Norte 0 -- -- 83
2017-11-19 17:00:00 14.7 0 Calma 8 Este 0 -- -- 69
2017-11-19 16:00:00 15.8 0 Calma 11 Sudeste 0 -- -- 57
2017-11-19 15:00:00 16 3 Este 12 Nordeste 0 -- -- 61
2017-11-19 14:00:00 16.7 4 Sudeste 14 Nordeste 0 -- -- 59
2017-11-19 13:00:00 17.9 2 Sudeste 12 Nordeste 0 -- -- 58
2017-11-19 12:00:00 17 2 Sudeste 12 Sur 0 -- -- 59
2017-11-19 11:00:00 16.7 3 Sudeste 11 Sudeste 0 -- -- 62
2017-11-19 10:00:00 16.6 0 Calma 9 Norte 0 -- -- 65
2017-11-19 09:00:00 11.2 4 Norte 10 Noroeste 0 -- -- 82
2017-11-19 08:00:00 8.7 5 Norte 10 Norte 0 -- -- 82
2017-11-19 07:00:00 7.9 5 Norte 12 Noroeste 0 -- -- 79
2017-11-19 06:00:00 8.1 6 Norte 14 Nordeste 0 -- -- 78
2017-11-19 05:00:00 7.9 2 Norte 11 Norte 0 -- -- 84
2017-11-19 04:00:00 7.9 3 Norte 8 Norte 0 -- -- 87
2017-11-19 03:00:00 8.8 3 Norte 11 Norte 0 -- -- 83
2017-11-19 02:00:00 10.2 6 Norte 13 Norte 0 -- -- 84
2017-11-19 01:00:00 10.6 4 Norte 10 Norte 0 -- -- 88
2017-11-19 00:00:00 10.9 5 Norte 10 Norte 0 -- -- 88
2017-11-18 23:00:00 10.4 5 Norte 10 Norte 0 -- -- 86
2017-11-18 22:00:00 10.5 5 Norte 12 Norte 0 -- -- 84
2017-11-18 21:00:00 10.8 5 Norte 12 Norte 0 -- -- 87
2017-11-18 20:00:00 11.1 5 Norte 10 Noroeste 0 -- -- 88
2017-11-18 19:00:00 11.4 4 Noroeste 9 Norte 0 -- -- 84
2017-11-18 18:00:00 12.1 3 Norte 6 Norte 0 -- -- 79
2017-11-18 17:00:00 14.7 0 Calma 6 Sur 0 -- -- 65
2017-11-18 16:00:00 16 3 Sur 9 Sur 0 -- -- 55
2017-11-18 15:00:00 16.7 2 Este 10 Nordeste 0 -- -- 52
2017-11-18 14:00:00 17.3 4 Sur 13 Sudoeste 0 -- -- 47
2017-11-18 13:00:00 19.4 2 Sudeste 9 Sudoeste 0 -- -- 42
2017-11-18 12:00:00 18.2 0 Calma 8 Sudeste 0 -- -- 41
2017-11-18 11:00:00 17 2 Este 9 Nordeste 0 -- -- 47
2017-11-18 10:00:00 18 0 Calma 13 Norte 0 -- -- 59
2017-11-18 09:00:00 13.1 6 Norte 13 Norte 0 -- -- 83
2017-11-18 08:00:00 10.5 5 Noroeste 10 Nordeste 0 -- -- 92
2017-11-18 07:00:00 10.4 3 Noroeste 11 Noroeste 0 -- -- 91
2017-11-18 06:00:00 10.2 5 Norte 11 Norte 0 -- -- 90
2017-11-18 05:00:00 10.1 6 Norte 10 Norte 0 -- -- 88
2017-11-18 04:00:00 9.8 5 Norte 14 Norte 0 -- -- 86
2017-11-18 03:00:00 10.1 5 Norte 14 Norte 0 -- -- 82
2017-11-18 02:00:00 10.1 4 Noroeste 12 Norte 0 -- -- 83
2017-11-18 01:00:00 10.6 6 Norte 14 Norte 0 -- -- 79
2017-11-18 00:00:00 10.2 6 Norte 13 Norte 0 -- -- 78
2017-11-17 23:00:00 10.7 8 Norte 23 Norte 0 -- -- 72
2017-11-17 22:00:00 10.3 7 Norte 14 Norte 0 -- -- 70
2017-11-17 21:00:00 10.7 5 Norte 11 Norte 0 -- -- 69
2017-11-17 20:00:00 11.1 6 Norte 14 Norte 0 -- -- 69
2017-11-17 19:00:00 11.4 5 Norte 11 Norte 0 -- -- 69
2017-11-17 18:00:00 12.3 4 Norte 8 Norte 0 -- -- 67
2017-11-17 17:00:00 15.7 3 Sudoeste 9 Sudoeste 0 -- -- 50
2017-11-17 16:00:00 17.3 4 Sur 10 Sudoeste 0 -- -- 39
2017-11-17 15:00:00 17.9 5 Sur 10 Sudeste 0 -- -- 37
2017-11-17 14:00:00 19.1 3 Este 11 Nordeste 0 -- -- 37
2017-11-17 13:00:00 19.8 3 Este 10 Nordeste 0 -- -- 33
2017-11-17 12:00:00 19.1 2 Sudeste 8 Sudeste 0 -- -- 35
2017-11-17 11:00:00 18 2 Nordeste 8 Nordeste 0 -- -- 37
2017-11-17 10:00:00 17.2 0 Calma 7 Norte 0 -- -- 40
2017-11-17 09:00:00 10.6 4 Nordeste 9 Nordeste 0 -- -- 54
2017-11-17 08:00:00 7.2 4 Norte 6 Norte 0 -- -- 62
2017-11-17 07:00:00 7.4 3 Norte 9 Noroeste 0 -- -- 61
2017-11-17 06:00:00 7.5 6 Norte 12 Nordeste 0 -- -- 64
2017-11-17 05:00:00 7.2 4 Norte 11 Norte 0 -- -- 63
2017-11-17 04:00:00 8 6 Norte 12 Norte 0 -- -- 64
2017-11-17 03:00:00 7.8 3 Noroeste 16 Norte 0 -- -- 69
2017-11-17 02:00:00 8.8 8 Norte 14 Norte 0 -- -- 67
2017-11-17 01:00:00 8.2 5 Norte 13 Norte 0 -- -- 72
2017-11-17 00:00:00 9 7 Norte 15 Norte 0 -- -- 71
2017-11-16 23:00:00 9.1 7 Norte 16 Norte 0 -- -- 74
2017-11-16 22:00:00 9.2 6 Norte 15 Norte 0 -- -- 82
2017-11-16 21:00:00 9.1 5 Norte 9 Norte 0 -- -- 88
2017-11-16 20:00:00 9.8 5 Norte 11 Norte 0 -- -- 88
2017-11-16 19:00:00 9.9 4 Nordeste 8 Norte 0 -- -- 88
2017-11-16 18:00:00 10.7 2 Sudoeste 12 Sudoeste 0 -- -- 83
2017-11-16 17:00:00 13.6 0 Calma 15 Sudoeste 0 -- -- 72
2017-11-16 16:00:00 14.3 6 Sudoeste 17 Sur 0 -- -- 67
2017-11-16 15:00:00 14.7 5 Sur 17 Sur 0 -- -- 64
2017-11-16 14:00:00 15.1 5 Sur 17 Sur 0 -- -- 57
2017-11-16 13:00:00 16.7 4 Sudeste 15 Sur 0 -- -- 51
2017-11-16 12:00:00 15.6 4 Sur 12 Sur 0 -- -- 49
2017-11-16 11:00:00 16.5 2 Sudeste 10 Sudeste 0 -- -- 47
2017-11-16 10:00:00 15.2 0 Calma 6 Sudeste 0 -- -- 55
2017-11-16 09:00:00 9.7 4 Nordeste 9 Norte 0 -- -- 65
2017-11-16 08:00:00 7.1 6 Norte 12 Norte 0 -- -- 72
2017-11-16 07:00:00 6.9 5 Norte 11 Noroeste 0 -- -- 71
2017-11-16 06:00:00 7.3 6 Norte 14 Norte 0 -- -- 73
2017-11-16 05:00:00 7.3 5 Noroeste 14 Norte 0 -- -- 60
2017-11-16 04:00:00 7.8 8 Norte 14 Norte 0 -- -- 55
2017-11-16 03:00:00 7.9 8 Norte 17 Norte 0 -- -- 52
2017-11-16 02:00:00 6.8 6 Norte 11 Norte 0 -- -- 55
2017-11-16 01:00:00 7.3 5 Norte 11 Norte 0 -- -- 56
2017-11-16 00:00:00 7.4 6 Norte 12 Norte 0 -- -- 52
2017-11-15 23:00:00 7.3 5 Norte 13 Norte 0 -- -- 59
2017-11-15 22:00:00 7.4 8 Norte 13 Norte 0 -- -- 70
2017-11-15 21:00:00 7.6 5 Noroeste 10 Norte 0 -- -- 75
2017-11-15 20:00:00 7.5 4 Norte 9 Norte 0 -- -- 76
2017-11-15 19:00:00 8.4 4 Noroeste 12 Norte 0 -- -- 72
2017-11-15 18:00:00 9.5 5 Norte 8 Norte 0 -- -- 70
2017-11-15 17:00:00 11.9 0 Calma 6 Este 0 -- -- 57
2017-11-15 16:00:00 13.4 3 Sudeste 10 Sur 0 -- -- 55
2017-11-15 15:00:00 14.1 4 Sur 13 Sur 0 -- -- 51
2017-11-15 14:00:00 15.4 3 Sudeste 11 Sudeste 0 -- -- 43
2017-11-15 13:00:00 16.7 0 Calma 11 Sur 0 -- -- 39
2017-11-15 12:00:00 16.2 3 Este 10 Sudeste 0 -- -- 41
2017-11-15 11:00:00 16.3 0 Calma 8 Sudeste 0 -- -- 41
2017-11-15 10:00:00 14.5 0 Calma 9 Norte 0 -- -- 43
2017-11-15 09:00:00 10.7 0 Calma 17 Nordeste 0 -- -- 49
2017-11-15 08:00:00 6.1 5 Norte 17 Norte 0 -- -- 58
2017-11-15 07:00:00 6.2 7 Norte 14 Norte 0 -- -- 64
2017-11-15 06:00:00 5.9 8 Norte 15 Norte 0 -- -- 63
2017-11-15 05:00:00 6.1 8 Norte 17 Norte 0 -- -- 53
2017-11-15 04:00:00 6.1 10 Norte 18 Norte 0 -- -- 51
2017-11-15 03:00:00 6.5 6 Norte 14 Norte 0 -- -- 52
2017-11-15 02:00:00 7.5 9 Norte 16 Norte 0 -- -- 49
2017-11-15 01:00:00 5.9 0 Calma 13 Nordeste 0 -- -- 53
2017-11-15 00:00:00 7.4 6 Norte 14 Norte 0 -- -- 51